sensor_id;sensor_type;location;lat;lon;timestamp;P1;durP1;ratioP1;P2;durP2;ratioP2
20567;SDS011;10442;49.932;11.592;2024-03-08T00:00:11;14.53;;;11.17;;
20567;SDS011;10442;49.932;11.592;2024-03-08T00:02:44;14.23;;;11.27;;
20567;SDS011;10442;49.932;11.592;2024-03-08T00:05:13;16.77;;;12.00;;
20567;SDS011;10442;49.932;11.592;2024-03-08T00:07:42;12.03;;;10.47;;
20567;SDS011;10442;49.932;11.592;2024-03-08T00:10:11;16.90;;;12.20;;
20567;SDS011;10442;49.932;11.592;2024-03-08T00:12:43;18.00;;;13.87;;
20567;SDS011;10442;49.932;11.592;2024-03-08T00:15:13;14.63;;;12.43;;
20567;SDS011;10442;49.932;11.592;2024-03-08T00:17:43;19.87;;;11.33;;
20567;SDS011;10442;49.932;11.592;2024-03-08T00:20:11;16.57;;;12.70;;
20567;SDS011;10442;49.932;11.592;2024-03-08T00:22:40;16.70;;;12.40;;
20567;SDS011;10442;49.932;11.592;2024-03-08T00:25:07;19.57;;;15.80;;
20567;SDS011;10442;49.932;11.592;2024-03-08T00:27:41;17.10;;;15.30;;
20567;SDS011;10442;49.932;11.592;2024-03-08T00:30:09;16.83;;;12.03;;
20567;SDS011;10442;49.932;11.592;2024-03-08T00:32:40;17.53;;;13.40;;
20567;SDS011;10442;49.932;11.592;2024-03-08T00:35:08;19.77;;;14.40;;
20567;SDS011;10442;49.932;11.592;2024-03-08T00:37:35;12.67;;;11.03;;
20567;SDS011;10442;49.932;11.592;2024-03-08T00:40:03;18.03;;;13.33;;
20567;SDS011;10442;49.932;11.592;2024-03-08T00:42:34;14.67;;;11.53;;
20567;SDS011;10442;49.932;11.592;2024-03-08T00:45:01;15.60;;;13.40;;
20567;SDS011;10442;49.932;11.592;2024-03-08T00:47:30;17.27;;;13.10;;
20567;SDS011;10442;49.932;11.592;2024-03-08T00:49:57;14.63;;;12.93;;
20567;SDS011;10442;49.932;11.592;2024-03-08T00:52:25;17.43;;;11.30;;
20567;SDS011;10442;49.932;11.592;2024-03-08T00:54:53;14.97;;;12.43;;
20567;SDS011;10442;49.932;11.592;2024-03-08T00:57:20;13.83;;;11.30;;
20567;SDS011;10442;49.932;11.592;2024-03-08T00:59:48;15.87;;;12.10;;
20567;SDS011;10442;49.932;11.592;2024-03-08T01:02:16;17.03;;;12.03;;
20567;SDS011;10442;49.932;11.592;2024-03-08T01:04:46;15.57;;;12.33;;
20567;SDS011;10442;49.932;11.592;2024-03-08T01:07:14;16.93;;;12.40;;
20567;SDS011;10442;49.932;11.592;2024-03-08T01:09:42;16.40;;;13.00;;
20567;SDS011;10442;49.932;11.592;2024-03-08T01:12:09;17.80;;;11.50;;
20567;SDS011;10442;49.932;11.592;2024-03-08T01:14:38;15.50;;;13.27;;
20567;SDS011;10442;49.932;11.592;2024-03-08T01:17:05;16.10;;;11.83;;
20567;SDS011;10442;49.932;11.592;2024-03-08T01:19:32;14.83;;;12.20;;
20567;SDS011;10442;49.932;11.592;2024-03-08T01:22:00;14.80;;;12.10;;
20567;SDS011;10442;49.932;11.592;2024-03-08T01:24:28;17.60;;;12.10;;
20567;SDS011;10442;49.932;11.592;2024-03-08T01:26:55;15.07;;;11.47;;
20567;SDS011;10442;49.932;11.592;2024-03-08T01:29:23;14.70;;;11.63;;
20567;SDS011;10442;49.932;11.592;2024-03-08T01:31:50;16.33;;;13.83;;
20567;SDS011;10442;49.932;11.592;2024-03-08T01:34:19;18.43;;;12.87;;
20567;SDS011;10442;49.932;11.592;2024-03-08T01:36:46;14.13;;;11.80;;
20567;SDS011;10442;49.932;11.592;2024-03-08T01:39:14;15.33;;;12.33;;
20567;SDS011;10442;49.932;11.592;2024-03-08T01:41:41;17.90;;;13.90;;
20567;SDS011;10442;49.932;11.592;2024-03-08T01:44:09;15.00;;;12.00;;
20567;SDS011;10442;49.932;11.592;2024-03-08T01:46:36;16.23;;;12.33;;
20567;SDS011;10442;49.932;11.592;2024-03-08T01:49:04;15.73;;;12.50;;
20567;SDS011;10442;49.932;11.592;2024-03-08T01:51:32;13.30;;;11.10;;
20567;SDS011;10442;49.932;11.592;2024-03-08T01:54:01;17.33;;;13.37;;
20567;SDS011;10442;49.932;11.592;2024-03-08T01:56:30;16.20;;;12.73;;
20567;SDS011;10442;49.932;11.592;2024-03-08T01:58:59;12.60;;;10.90;;
20567;SDS011;10442;49.932;11.592;2024-03-08T02:01:28;16.80;;;13.67;;
20567;SDS011;10442;49.932;11.592;2024-03-08T02:03:56;15.80;;;12.80;;
20567;SDS011;10442;49.932;11.592;2024-03-08T02:06:23;19.03;;;14.17;;
20567;SDS011;10442;49.932;11.592;2024-03-08T02:08:51;16.73;;;12.57;;
20567;SDS011;10442;49.932;11.592;2024-03-08T02:11:19;12.83;;;11.33;;
20567;SDS011;10442;49.932;11.592;2024-03-08T02:13:47;16.40;;;12.53;;
20567;SDS011;10442;49.932;11.592;2024-03-08T02:16:20;13.93;;;12.43;;
20567;SDS011;10442;49.932;11.592;2024-03-08T02:18:48;27.43;;;12.87;;
20567;SDS011;10442;49.932;11.592;2024-03-08T02:21:16;17.43;;;13.00;;
20567;SDS011;10442;49.932;11.592;2024-03-08T02:23:47;13.37;;;11.47;;
20567;SDS011;10442;49.932;11.592;2024-03-08T02:26:15;16.57;;;13.43;;
20567;SDS011;10442;49.932;11.592;2024-03-08T02:28:43;14.43;;;12.10;;
20567;SDS011;10442;49.932;11.592;2024-03-08T02:31:11;15.93;;;12.43;;
20567;SDS011;10442;49.932;11.592;2024-03-08T02:33:39;15.73;;;12.73;;
20567;SDS011;10442;49.932;11.592;2024-03-08T02:36:07;16.70;;;13.23;;
20567;SDS011;10442;49.932;11.592;2024-03-08T02:38:34;17.27;;;11.63;;
20567;SDS011;10442;49.932;11.592;2024-03-08T02:41:01;18.53;;;12.20;;
20567;SDS011;10442;49.932;11.592;2024-03-08T02:43:31;14.87;;;12.23;;
20567;SDS011;10442;49.932;11.592;2024-03-08T02:45:58;17.33;;;13.70;;
20567;SDS011;10442;49.932;11.592;2024-03-08T02:48:26;17.13;;;13.77;;
20567;SDS011;10442;49.932;11.592;2024-03-08T02:50:53;13.67;;;11.80;;
20567;SDS011;10442;49.932;11.592;2024-03-08T02:53:21;18.43;;;13.60;;
20567;SDS011;10442;49.932;11.592;2024-03-08T02:55:49;15.67;;;13.97;;
20567;SDS011;10442;49.932;11.592;2024-03-08T02:58:17;15.17;;;13.00;;
20567;SDS011;10442;49.932;11.592;2024-03-08T03:00:45;16.10;;;12.67;;
20567;SDS011;10442;49.932;11.592;2024-03-08T03:03:12;19.10;;;13.13;;
20567;SDS011;10442;49.932;11.592;2024-03-08T03:05:40;18.20;;;13.33;;
20567;SDS011;10442;49.932;11.592;2024-03-08T03:08:15;20.00;;;14.23;;
20567;SDS011;10442;49.932;11.592;2024-03-08T03:10:44;16.17;;;12.50;;
20567;SDS011;10442;49.932;11.592;2024-03-08T03:13:11;18.77;;;13.50;;
20567;SDS011;10442;49.932;11.592;2024-03-08T03:15:39;18.90;;;14.10;;
20567;SDS011;10442;49.932;11.592;2024-03-08T03:18:08;19.50;;;12.23;;
20567;SDS011;10442;49.932;11.592;2024-03-08T03:20:36;18.53;;;14.00;;
20567;SDS011;10442;49.932;11.592;2024-03-08T03:23:10;16.90;;;12.50;;
20567;SDS011;10442;49.932;11.592;2024-03-08T03:25:42;18.43;;;14.63;;
20567;SDS011;10442;49.932;11.592;2024-03-08T03:28:10;19.40;;;14.23;;
20567;SDS011;10442;49.932;11.592;2024-03-08T03:30:41;18.73;;;13.00;;
20567;SDS011;10442;49.932;11.592;2024-03-08T03:33:09;17.33;;;13.90;;
20567;SDS011;10442;49.932;11.592;2024-03-08T03:35:37;14.87;;;12.27;;
20567;SDS011;10442;49.932;11.592;2024-03-08T03:38:06;16.63;;;13.20;;
20567;SDS011;10442;49.932;11.592;2024-03-08T03:40:39;17.97;;;13.17;;
20567;SDS011;10442;49.932;11.592;2024-03-08T03:43:07;17.20;;;13.33;;
20567;SDS011;10442;49.932;11.592;2024-03-08T03:45:36;18.27;;;14.07;;
20567;SDS011;10442;49.932;11.592;2024-03-08T03:48:05;18.20;;;14.03;;
20567;SDS011;10442;49.932;11.592;2024-03-08T03:50:34;19.57;;;13.63;;
20567;SDS011;10442;49.932;11.592;2024-03-08T03:53:04;18.90;;;13.73;;
20567;SDS011;10442;49.932;11.592;2024-03-08T03:55:36;18.47;;;12.37;;
20567;SDS011;10442;49.932;11.592;2024-03-08T03:58:05;17.23;;;13.43;;
20567;SDS011;10442;49.932;11.592;2024-03-08T04:00:33;22.40;;;15.83;;
20567;SDS011;10442;49.932;11.592;2024-03-08T04:03:00;19.57;;;14.57;;
20567;SDS011;10442;49.932;11.592;2024-03-08T04:05:28;16.27;;;12.97;;
20567;SDS011;10442;49.932;11.592;2024-03-08T04:07:56;17.43;;;13.43;;
20567;SDS011;10442;49.932;11.592;2024-03-08T04:10:23;16.57;;;13.13;;
20567;SDS011;10442;49.932;11.592;2024-03-08T04:12:51;19.43;;;15.33;;
20567;SDS011;10442;49.932;11.592;2024-03-08T04:15:19;17.17;;;14.03;;
20567;SDS011;10442;49.932;11.592;2024-03-08T04:17:48;17.93;;;15.83;;
20567;SDS011;10442;49.932;11.592;2024-03-08T04:20:16;17.63;;;13.17;;
20567;SDS011;10442;49.932;11.592;2024-03-08T04:22:44;16.27;;;13.67;;
20567;SDS011;10442;49.932;11.592;2024-03-08T04:25:16;17.23;;;14.53;;
20567;SDS011;10442;49.932;11.592;2024-03-08T04:27:44;20.33;;;13.73;;
20567;SDS011;10442;49.932;11.592;2024-03-08T04:30:12;26.43;;;19.60;;
20567;SDS011;10442;49.932;11.592;2024-03-08T04:32:40;19.03;;;15.47;;
20567;SDS011;10442;49.932;11.592;2024-03-08T04:35:10;17.13;;;13.90;;
20567;SDS011;10442;49.932;11.592;2024-03-08T04:37:39;18.53;;;14.83;;
20567;SDS011;10442;49.932;11.592;2024-03-08T04:40:06;21.23;;;14.00;;
20567;SDS011;10442;49.932;11.592;2024-03-08T04:42:34;19.37;;;15.20;;
20567;SDS011;10442;49.932;11.592;2024-03-08T04:45:04;18.70;;;14.90;;
20567;SDS011;10442;49.932;11.592;2024-03-08T04:47:32;22.77;;;17.23;;
20567;SDS011;10442;49.932;11.592;2024-03-08T04:49:59;26.17;;;18.13;;
20567;SDS011;10442;49.932;11.592;2024-03-08T04:52:27;24.67;;;19.40;;
20567;SDS011;10442;49.932;11.592;2024-03-08T04:54:55;23.47;;;17.87;;
20567;SDS011;10442;49.932;11.592;2024-03-08T04:57:22;21.30;;;16.97;;
20567;SDS011;10442;49.932;11.592;2024-03-08T04:59:50;22.40;;;19.77;;
20567;SDS011;10442;49.932;11.592;2024-03-08T05:02:17;27.43;;;18.93;;
20567;SDS011;10442;49.932;11.592;2024-03-08T05:04:45;28.40;;;18.20;;
20567;SDS011;10442;49.932;11.592;2024-03-08T05:07:12;27.27;;;18.87;;
20567;SDS011;10442;49.932;11.592;2024-03-08T05:09:39;25.87;;;18.07;;
20567;SDS011;10442;49.932;11.592;2024-03-08T05:12:08;24.13;;;17.77;;
20567;SDS011;10442;49.932;11.592;2024-03-08T05:14:35;25.07;;;18.17;;
20567;SDS011;10442;49.932;11.592;2024-03-08T05:17:03;23.57;;;17.57;;
20567;SDS011;10442;49.932;11.592;2024-03-08T05:19:33;22.57;;;17.07;;
20567;SDS011;10442;49.932;11.592;2024-03-08T05:22:01;22.13;;;17.20;;
20567;SDS011;10442;49.932;11.592;2024-03-08T05:24:30;23.27;;;17.30;;
20567;SDS011;10442;49.932;11.592;2024-03-08T05:26:57;21.20;;;16.10;;
20567;SDS011;10442;49.932;11.592;2024-03-08T05:29:27;23.23;;;18.03;;
20567;SDS011;10442;49.932;11.592;2024-03-08T05:31:56;24.30;;;17.77;;
20567;SDS011;10442;49.932;11.592;2024-03-08T05:34:25;25.00;;;20.30;;
20567;SDS011;10442;49.932;11.592;2024-03-08T05:36:53;25.70;;;17.67;;
20567;SDS011;10442;49.932;11.592;2024-03-08T05:39:22;21.90;;;17.23;;
20567;SDS011;10442;49.932;11.592;2024-03-08T05:41:50;21.37;;;16.73;;
20567;SDS011;10442;49.932;11.592;2024-03-08T05:44:18;23.93;;;17.43;;
20567;SDS011;10442;49.932;11.592;2024-03-08T05:46:46;25.40;;;18.13;;
20567;SDS011;10442;49.932;11.592;2024-03-08T05:49:14;23.07;;;16.63;;
20567;SDS011;10442;49.932;11.592;2024-03-08T05:51:42;22.90;;;17.50;;
20567;SDS011;10442;49.932;11.592;2024-03-08T05:54:11;25.17;;;18.30;;
20567;SDS011;10442;49.932;11.592;2024-03-08T05:56:43;19.87;;;15.87;;
20567;SDS011;10442;49.932;11.592;2024-03-08T05:59:11;19.73;;;15.77;;
20567;SDS011;10442;49.932;11.592;2024-03-08T06:01:40;27.53;;;16.73;;
20567;SDS011;10442;49.932;11.592;2024-03-08T06:04:09;21.07;;;16.33;;
20567;SDS011;10442;49.932;11.592;2024-03-08T06:06:39;22.00;;;18.20;;
20567;SDS011;10442;49.932;11.592;2024-03-08T06:09:08;25.03;;;19.03;;
20567;SDS011;10442;49.932;11.592;2024-03-08T06:11:39;21.13;;;16.53;;
20567;SDS011;10442;49.932;11.592;2024-03-08T06:14:07;28.67;;;18.87;;
20567;SDS011;10442;49.932;11.592;2024-03-08T06:16:34;22.67;;;18.83;;
20567;SDS011;10442;49.932;11.592;2024-03-08T06:19:02;24.60;;;20.30;;
20567;SDS011;10442;49.932;11.592;2024-03-08T06:21:30;26.33;;;19.50;;
20567;SDS011;10442;49.932;11.592;2024-03-08T06:23:59;24.00;;;18.07;;
20567;SDS011;10442;49.932;11.592;2024-03-08T06:26:27;23.93;;;19.07;;
20567;SDS011;10442;49.932;11.592;2024-03-08T06:28:57;22.30;;;17.17;;
20567;SDS011;10442;49.932;11.592;2024-03-08T06:31:25;24.30;;;19.23;;
20567;SDS011;10442;49.932;11.592;2024-03-08T06:33:53;26.27;;;20.93;;
20567;SDS011;10442;49.932;11.592;2024-03-08T06:36:24;25.67;;;20.23;;
20567;SDS011;10442;49.932;11.592;2024-03-08T06:38:52;27.97;;;19.43;;
20567;SDS011;10442;49.932;11.592;2024-03-08T06:41:20;24.83;;;18.63;;
20567;SDS011;10442;49.932;11.592;2024-03-08T06:43:48;27.93;;;18.53;;
20567;SDS011;10442;49.932;11.592;2024-03-08T06:46:18;23.03;;;18.73;;
20567;SDS011;10442;49.932;11.592;2024-03-08T06:48:48;22.23;;;18.47;;
20567;SDS011;10442;49.932;11.592;2024-03-08T06:51:17;23.07;;;18.80;;
20567;SDS011;10442;49.932;11.592;2024-03-08T06:53:45;22.17;;;17.63;;
20567;SDS011;10442;49.932;11.592;2024-03-08T06:56:12;23.33;;;19.50;;
20567;SDS011;10442;49.932;11.592;2024-03-08T06:58:40;27.50;;;19.10;;
20567;SDS011;10442;49.932;11.592;2024-03-08T07:01:09;27.15;;;18.52;;
20567;SDS011;10442;49.932;11.592;2024-03-08T07:03:42;23.75;;;18.23;;
20567;SDS011;10442;49.932;11.592;2024-03-08T07:06:11;19.10;;;17.00;;
20567;SDS011;10442;49.932;11.592;2024-03-08T07:08:39;21.90;;;18.45;;
20567;SDS011;10442;49.932;11.592;2024-03-08T07:11:07;22.33;;;18.58;;
20567;SDS011;10442;49.932;11.592;2024-03-08T07:13:36;22.35;;;19.92;;
20567;SDS011;10442;49.932;11.592;2024-03-08T07:16:05;23.70;;;19.02;;
20567;SDS011;10442;49.932;11.592;2024-03-08T07:18:35;21.92;;;19.48;;
20567;SDS011;10442;49.932;11.592;2024-03-08T07:21:07;22.25;;;19.90;;
20567;SDS011;10442;49.932;11.592;2024-03-08T07:23:35;22.48;;;20.25;;
20567;SDS011;10442;49.932;11.592;2024-03-08T07:26:41;22.50;;;19.70;;
20567;SDS011;10442;49.932;11.592;2024-03-08T07:29:09;23.45;;;20.25;;
20567;SDS011;10442;49.932;11.592;2024-03-08T07:31:37;24.48;;;21.05;;
20567;SDS011;10442;49.932;11.592;2024-03-08T07:34:04;20.13;;;18.05;;
20567;SDS011;10442;49.932;11.592;2024-03-08T07:36:34;21.80;;;17.92;;
20567;SDS011;10442;49.932;11.592;2024-03-08T07:39:02;23.83;;;20.17;;
20567;SDS011;10442;49.932;11.592;2024-03-08T07:41:34;20.63;;;18.45;;
20567;SDS011;10442;49.932;11.592;2024-03-08T07:44:03;21.30;;;19.00;;
20567;SDS011;10442;49.932;11.592;2024-03-08T07:46:31;20.23;;;18.17;;
20567;SDS011;10442;49.932;11.592;2024-03-08T07:49:01;26.70;;;20.08;;
20567;SDS011;10442;49.932;11.592;2024-03-08T07:51:29;24.35;;;20.85;;
20567;SDS011;10442;49.932;11.592;2024-03-08T07:53:57;21.77;;;19.48;;
20567;SDS011;10442;49.932;11.592;2024-03-08T07:56:25;22.27;;;18.73;;
20567;SDS011;10442;49.932;11.592;2024-03-08T07:58:52;22.13;;;19.75;;
20567;SDS011;10442;49.932;11.592;2024-03-08T08:01:20;21.27;;;19.15;;
20567;SDS011;10442;49.932;11.592;2024-03-08T08:03:48;23.00;;;19.63;;
20567;SDS011;10442;49.932;11.592;2024-03-08T08:06:16;25.88;;;19.35;;
20567;SDS011;10442;49.932;11.592;2024-03-08T08:08:44;23.65;;;19.20;;
20567;SDS011;10442;49.932;11.592;2024-03-08T08:11:12;22.50;;;20.20;;
20567;SDS011;10442;49.932;11.592;2024-03-08T08:13:39;20.20;;;18.08;;
20567;SDS011;10442;49.932;11.592;2024-03-08T08:16:09;22.70;;;20.52;;
20567;SDS011;10442;49.932;11.592;2024-03-08T08:18:40;21.08;;;18.80;;
20567;SDS011;10442;49.932;11.592;2024-03-08T08:21:08;19.83;;;17.67;;
20567;SDS011;10442;49.932;11.592;2024-03-08T08:23:35;21.50;;;19.30;;
20567;SDS011;10442;49.932;11.592;2024-03-08T08:26:03;22.10;;;19.23;;
20567;SDS011;10442;49.932;11.592;2024-03-08T08:28:32;21.20;;;18.92;;
20567;SDS011;10442;49.932;11.592;2024-03-08T08:31:00;20.33;;;18.15;;
20567;SDS011;10442;49.932;11.592;2024-03-08T08:33:27;20.55;;;18.35;;
20567;SDS011;10442;49.932;11.592;2024-03-08T08:35:56;22.63;;;18.63;;
20567;SDS011;10442;49.932;11.592;2024-03-08T08:38:23;21.88;;;19.70;;
20567;SDS011;10442;49.932;11.592;2024-03-08T08:40:51;20.48;;;18.27;;
20567;SDS011;10442;49.932;11.592;2024-03-08T08:43:19;22.48;;;20.05;;
20567;SDS011;10442;49.932;11.592;2024-03-08T08:45:51;20.63;;;18.20;;
20567;SDS011;10442;49.932;11.592;2024-03-08T08:48:21;22.52;;;18.30;;
20567;SDS011;10442;49.932;11.592;2024-03-08T08:50:49;22.02;;;17.63;;
20567;SDS011;10442;49.932;11.592;2024-03-08T08:53:19;18.52;;;16.65;;
20567;SDS011;10442;49.932;11.592;2024-03-08T08:55:46;19.30;;;17.38;;
20567;SDS011;10442;49.932;11.592;2024-03-08T08:58:14;21.33;;;18.88;;
20567;SDS011;10442;49.932;11.592;2024-03-08T09:00:42;20.10;;;17.95;;
20567;SDS011;10442;49.932;11.592;2024-03-08T09:03:10;20.98;;;18.65;;
20567;SDS011;10442;49.932;11.592;2024-03-08T09:05:39;20.67;;;17.25;;
20567;SDS011;10442;49.932;11.592;2024-03-08T09:08:12;21.25;;;17.95;;
20567;SDS011;10442;49.932;11.592;2024-03-08T09:10:40;20.73;;;18.52;;
20567;SDS011;10442;49.932;11.592;2024-03-08T09:13:07;20.65;;;18.55;;
20567;SDS011;10442;49.932;11.592;2024-03-08T09:15:44;18.33;;;15.93;;
20567;SDS011;10442;49.932;11.592;2024-03-08T09:18:12;25.08;;;19.90;;
20567;SDS011;10442;49.932;11.592;2024-03-08T09:20:40;17.33;;;15.60;;
20567;SDS011;10442;49.932;11.592;2024-03-08T09:23:08;18.60;;;16.15;;
20567;SDS011;10442;49.932;11.592;2024-03-08T09:25:36;20.23;;;17.10;;
20567;SDS011;10442;49.932;11.592;2024-03-08T09:28:04;22.48;;;18.60;;
20567;SDS011;10442;49.932;11.592;2024-03-08T09:30:32;19.75;;;15.95;;
20567;SDS011;10442;49.932;11.592;2024-03-08T09:33:02;22.73;;;15.60;;
20567;SDS011;10442;49.932;11.592;2024-03-08T09:35:30;21.00;;;16.85;;
20567;SDS011;10442;49.932;11.592;2024-03-08T09:37:58;20.92;;;18.02;;
20567;SDS011;10442;49.932;11.592;2024-03-08T09:40:25;20.60;;;17.40;;
20567;SDS011;10442;49.932;11.592;2024-03-08T09:42:54;19.42;;;15.23;;
20567;SDS011;10442;49.932;11.592;2024-03-08T09:45:23;17.85;;;15.50;;
20567;SDS011;10442;49.932;11.592;2024-03-08T09:47:52;19.65;;;16.58;;
20567;SDS011;10442;49.932;11.592;2024-03-08T09:50:21;15.93;;;14.23;;
20567;SDS011;10442;49.932;11.592;2024-03-08T09:52:49;18.10;;;15.25;;
20567;SDS011;10442;49.932;11.592;2024-03-08T09:55:17;19.13;;;15.93;;
20567;SDS011;10442;49.932;11.592;2024-03-08T09:57:49;16.23;;;14.48;;
20567;SDS011;10442;49.932;11.592;2024-03-08T10:00:38;18.00;;;16.10;;
20567;SDS011;10442;49.932;11.592;2024-03-08T10:03:06;22.50;;;18.35;;
20567;SDS011;10442;49.932;11.592;2024-03-08T10:05:34;18.05;;;16.15;;
20567;SDS011;10442;49.932;11.592;2024-03-08T10:08:02;17.60;;;15.70;;
20567;SDS011;10442;49.932;11.592;2024-03-08T10:10:30;20.90;;;15.57;;
20567;SDS011;10442;49.932;11.592;2024-03-08T10:12:58;17.85;;;15.65;;
20567;SDS011;10442;49.932;11.592;2024-03-08T10:15:30;18.02;;;15.45;;
20567;SDS011;10442;49.932;11.592;2024-03-08T10:17:59;18.10;;;15.20;;
20567;SDS011;10442;49.932;11.592;2024-03-08T10:20:30;24.38;;;17.63;;
20567;SDS011;10442;49.932;11.592;2024-03-08T10:23:01;19.13;;;14.75;;
20567;SDS011;10442;49.932;11.592;2024-03-08T10:25:37;18.55;;;15.85;;
20567;SDS011;10442;49.932;11.592;2024-03-08T10:28:06;18.05;;;14.90;;
20567;SDS011;10442;49.932;11.592;2024-03-08T10:30:33;18.85;;;15.35;;
20567;SDS011;10442;49.932;11.592;2024-03-08T10:33:01;16.75;;;13.82;;
20567;SDS011;10442;49.932;11.592;2024-03-08T10:35:32;17.23;;;14.95;;
20567;SDS011;10442;49.932;11.592;2024-03-08T10:37:59;16.55;;;12.85;;
20567;SDS011;10442;49.932;11.592;2024-03-08T10:40:31;16.25;;;14.25;;
20567;SDS011;10442;49.932;11.592;2024-03-08T10:43:00;18.10;;;14.43;;
20567;SDS011;10442;49.932;11.592;2024-03-08T10:48:24;19.55;;;15.82;;
20567;SDS011;10442;49.932;11.592;2024-03-08T10:51:05;23.75;;;15.70;;
20567;SDS011;10442;49.932;11.592;2024-03-08T10:53:34;14.20;;;12.60;;
20567;SDS011;10442;49.932;11.592;2024-03-08T10:56:04;17.70;;;14.30;;
20567;SDS011;10442;49.932;11.592;2024-03-08T10:58:32;28.00;;;15.43;;
20567;SDS011;10442;49.932;11.592;2024-03-08T11:01:02;23.02;;;19.30;;
20567;SDS011;10442;49.932;11.592;2024-03-08T11:06:08;16.35;;;14.07;;
20567;SDS011;10442;49.932;11.592;2024-03-08T11:08:37;21.40;;;14.55;;
20567;SDS011;10442;49.932;11.592;2024-03-08T11:11:27;15.05;;;13.45;;
20567;SDS011;10442;49.932;11.592;2024-03-08T11:14:01;14.13;;;12.40;;
20567;SDS011;10442;49.932;11.592;2024-03-08T11:21:38;13.45;;;12.05;;
20567;SDS011;10442;49.932;11.592;2024-03-08T11:24:07;16.88;;;14.00;;
20567;SDS011;10442;49.932;11.592;2024-03-08T11:26:39;15.43;;;13.82;;
20567;SDS011;10442;49.932;11.592;2024-03-08T11:34:49;15.50;;;12.18;;
20567;SDS011;10442;49.932;11.592;2024-03-08T11:37:18;16.58;;;12.90;;
20567;SDS011;10442;49.932;11.592;2024-03-08T11:39:49;13.48;;;12.05;;
20567;SDS011;10442;49.932;11.592;2024-03-08T11:42:18;15.98;;;12.60;;
20567;SDS011;10442;49.932;11.592;2024-03-08T11:44:47;15.23;;;11.77;;
20567;SDS011;10442;49.932;11.592;2024-03-08T11:47:15;16.15;;;11.55;;
20567;SDS011;10442;49.932;11.592;2024-03-08T11:49:43;12.60;;;11.30;;
20567;SDS011;10442;49.932;11.592;2024-03-08T11:52:16;13.30;;;11.98;;
20567;SDS011;10442;49.932;11.592;2024-03-08T11:54:53;13.73;;;12.50;;
20567;SDS011;10442;49.932;11.592;2024-03-08T11:57:24;14.95;;;12.88;;
20567;SDS011;10442;49.932;11.592;2024-03-08T11:59:52;13.95;;;11.68;;
20567;SDS011;10442;49.932;11.592;2024-03-08T12:02:24;15.35;;;12.25;;
20567;SDS011;10442;49.932;11.592;2024-03-08T12:04:58;12.63;;;10.88;;
20567;SDS011;10442;49.932;11.592;2024-03-08T12:07:28;11.98;;;9.40;;
20567;SDS011;10442;49.932;11.592;2024-03-08T12:10:20;14.98;;;11.05;;
20567;SDS011;10442;49.932;11.592;2024-03-08T12:12:49;12.88;;;11.30;;
20567;SDS011;10442;49.932;11.592;2024-03-08T12:15:22;13.95;;;11.50;;
20567;SDS011;10442;49.932;11.592;2024-03-08T12:17:51;14.43;;;11.40;;
20567;SDS011;10442;49.932;11.592;2024-03-08T12:20:26;10.48;;;9.48;;
20567;SDS011;10442;49.932;11.592;2024-03-08T12:22:58;11.05;;;9.93;;
20567;SDS011;10442;49.932;11.592;2024-03-08T12:25:32;11.15;;;9.88;;
20567;SDS011;10442;49.932;11.592;2024-03-08T12:28:11;10.60;;;9.55;;
20567;SDS011;10442;49.932;11.592;2024-03-08T12:30:46;12.88;;;9.85;;
20567;SDS011;10442;49.932;11.592;2024-03-08T12:33:19;11.07;;;9.98;;
20567;SDS011;10442;49.932;11.592;2024-03-08T12:35:51;15.50;;;11.70;;
20567;SDS011;10442;49.932;11.592;2024-03-08T12:38:22;11.57;;;9.90;;
20567;SDS011;10442;49.932;11.592;2024-03-08T12:40:59;12.60;;;9.63;;
20567;SDS011;10442;49.932;11.592;2024-03-08T12:43:29;11.70;;;10.55;;
20567;SDS011;10442;49.932;11.592;2024-03-08T12:45:59;12.85;;;9.77;;
20567;SDS011;10442;49.932;11.592;2024-03-08T12:48:26;11.23;;;9.15;;
20567;SDS011;10442;49.932;11.592;2024-03-08T12:50:54;11.05;;;9.90;;
20567;SDS011;10442;49.932;11.592;2024-03-08T12:53:22;10.60;;;9.52;;
20567;SDS011;10442;49.932;11.592;2024-03-08T12:55:50;11.35;;;9.95;;
20567;SDS011;10442;49.932;11.592;2024-03-08T12:58:19;12.15;;;10.85;;
20567;SDS011;10442;49.932;11.592;2024-03-08T13:00:47;10.45;;;9.35;;
20567;SDS011;10442;49.932;11.592;2024-03-08T13:03:20;10.50;;;9.48;;
20567;SDS011;10442;49.932;11.592;2024-03-08T13:05:49;11.25;;;10.15;;
20567;SDS011;10442;49.932;11.592;2024-03-08T13:08:17;12.98;;;11.30;;
20567;SDS011;10442;49.932;11.592;2024-03-08T13:10:45;12.40;;;11.18;;
20567;SDS011;10442;49.932;11.592;2024-03-08T13:13:13;11.63;;;10.43;;
20567;SDS011;10442;49.932;11.592;2024-03-08T13:15:44;11.77;;;10.18;;
20567;SDS011;10442;49.932;11.592;2024-03-08T13:18:12;11.85;;;10.60;;
20567;SDS011;10442;49.932;11.592;2024-03-08T13:20:40;10.55;;;9.43;;
20567;SDS011;10442;49.932;11.592;2024-03-08T13:23:14;12.68;;;9.38;;
20567;SDS011;10442;49.932;11.592;2024-03-08T13:25:41;9.77;;;8.95;;
20567;SDS011;10442;49.932;11.592;2024-03-08T13:28:09;11.32;;;10.13;;
20567;SDS011;10442;49.932;11.592;2024-03-08T13:30:38;10.15;;;9.20;;
20567;SDS011;10442;49.932;11.592;2024-03-08T13:33:06;9.77;;;8.88;;
20567;SDS011;10442;49.932;11.592;2024-03-08T13:35:34;10.45;;;9.45;;
20567;SDS011;10442;49.932;11.592;2024-03-08T13:38:02;10.57;;;9.57;;
20567;SDS011;10442;49.932;11.592;2024-03-08T13:40:31;10.13;;;9.00;;
20567;SDS011;10442;49.932;11.592;2024-03-08T13:42:59;9.80;;;8.82;;
20567;SDS011;10442;49.932;11.592;2024-03-08T13:45:28;11.40;;;9.40;;
20567;SDS011;10442;49.932;11.592;2024-03-08T13:47:56;9.18;;;8.27;;
20567;SDS011;10442;49.932;11.592;2024-03-08T13:50:23;9.32;;;8.32;;
20567;SDS011;10442;49.932;11.592;2024-03-08T13:52:53;8.20;;;7.40;;
20567;SDS011;10442;49.932;11.592;2024-03-08T13:55:22;9.65;;;8.65;;
20567;SDS011;10442;49.932;11.592;2024-03-08T13:57:53;9.73;;;8.82;;
20567;SDS011;10442;49.932;11.592;2024-03-08T14:00:20;11.02;;;8.10;;
20567;SDS011;10442;49.932;11.592;2024-03-08T14:02:50;9.27;;;7.57;;
20567;SDS011;10442;49.932;11.592;2024-03-08T14:05:17;9.32;;;7.28;;
20567;SDS011;10442;49.932;11.592;2024-03-08T14:07:46;9.98;;;8.98;;
20567;SDS011;10442;49.932;11.592;2024-03-08T14:10:17;11.60;;;9.63;;
20567;SDS011;10442;49.932;11.592;2024-03-08T14:12:50;8.85;;;7.72;;
20567;SDS011;10442;49.932;11.592;2024-03-08T14:15:18;8.88;;;8.07;;
20567;SDS011;10442;49.932;11.592;2024-03-08T14:17:53;10.52;;;9.48;;
20567;SDS011;10442;49.932;11.592;2024-03-08T14:20:23;9.57;;;8.57;;
20567;SDS011;10442;49.932;11.592;2024-03-08T14:22:53;9.18;;;8.07;;
20567;SDS011;10442;49.932;11.592;2024-03-08T14:25:24;11.65;;;10.55;;
20567;SDS011;10442;49.932;11.592;2024-03-08T14:27:52;10.68;;;9.68;;
20567;SDS011;10442;49.932;11.592;2024-03-08T14:30:20;11.07;;;9.98;;
20567;SDS011;10442;49.932;11.592;2024-03-08T14:33:05;11.10;;;9.95;;
20567;SDS011;10442;49.932;11.592;2024-03-08T14:35:36;10.68;;;9.68;;
20567;SDS011;10442;49.932;11.592;2024-03-08T14:38:05;10.18;;;9.02;;